createdAt,value
2017-12-16T00:00:28.109Z,88.70
2017-12-16T00:03:01.913Z,88.70
2017-12-16T00:05:38.194Z,88.40
2017-12-16T00:08:14.451Z,88.50
2017-12-16T00:10:49.537Z,88.60
2017-12-16T00:13:24.117Z,88.90
2017-12-16T00:15:58.080Z,89.00
2017-12-16T00:18:31.733Z,89.20
2017-12-16T00:21:06.238Z,89.60
2017-12-16T00:23:40.174Z,89.60
2017-12-16T00:26:13.973Z,89.80
2017-12-16T00:28:47.804Z,89.90
2017-12-16T00:31:22.366Z,89.40
2017-12-16T00:33:58.103Z,89.40
2017-12-16T00:36:38.665Z,89.50
2017-12-16T00:39:12.375Z,89.00
2017-12-16T00:41:46.912Z,88.80
2017-12-16T00:44:20.833Z,88.70
2017-12-16T00:46:54.611Z,88.90
2017-12-16T00:49:28.288Z,88.90
2017-12-16T00:52:02.851Z,88.30
2017-12-16T00:54:36.656Z,88.30
2017-12-16T00:57:10.460Z,88.00
2017-12-16T00:59:44.499Z,87.90
2017-12-16T01:02:20.495Z,87.70
2017-12-16T01:04:55.058Z,87.70
2017-12-16T01:07:29.725Z,87.70
2017-12-16T01:10:05.492Z,87.50
2017-12-16T01:12:40.480Z,87.40
2017-12-16T01:15:14.277Z,87.70
2017-12-16T01:17:49.569Z,87.70
2017-12-16T01:20:23.965Z,87.70
2017-12-16T01:23:00.418Z,87.70
2017-12-16T01:25:34.792Z,87.60
2017-12-16T01:28:09.973Z,87.60
2017-12-16T01:30:44.525Z,88.70
2017-12-16T01:33:18.873Z,88.70
2017-12-16T01:38:59.087Z,89.50
2017-12-16T01:41:32.790Z,90.00
2017-12-16T01:44:06.377Z,90.10
2017-12-16T01:46:41.676Z,90.30
2017-12-16T01:49:15.375Z,90.40
2017-12-16T01:51:48.990Z,90.40
2017-12-16T02:03:22.376Z,90.80
2017-12-16T02:05:59.301Z,91.00
2017-12-16T02:08:33.121Z,91.10
2017-12-16T02:11:06.909Z,91.00
2017-12-16T02:13:42.292Z,91.10
2017-12-16T02:16:19.131Z,91.00
2017-12-16T02:18:54.178Z,90.70
2017-12-16T02:21:28.320Z,90.60
2017-12-16T02:24:03.717Z,90.60
2017-12-16T02:26:38.508Z,90.50
2017-12-16T02:29:14.133Z,90.30
2017-12-16T02:31:49.116Z,90.30
2017-12-16T02:34:24.111Z,90.30
2017-12-16T02:36:57.809Z,90.20
2017-12-16T02:39:32.350Z,90.20
2017-12-16T02:42:06.533Z,90.20
2017-12-16T02:44:42.053Z,90.00
2017-12-16T02:47:17.329Z,90.00
2017-12-16T02:49:51.289Z,90.00
2017-12-16T02:52:24.955Z,90.10
2017-12-16T02:55:00.975Z,90.10
2017-12-16T02:57:35.634Z,90.10
2017-12-16T03:00:13.149Z,90.20
2017-12-16T03:02:52.179Z,90.30
2017-12-16T03:05:26.041Z,90.10
2017-12-16T03:07:59.835Z,90.20
2017-12-16T03:10:33.804Z,90.40
2017-12-16T03:13:08.359Z,90.60
2017-12-16T03:15:42.931Z,90.60
2017-12-16T03:18:17.354Z,90.80
2017-12-16T03:20:51.140Z,91.00
2017-12-16T03:23:28.593Z,90.90
2017-12-16T03:26:06.844Z,90.90
2017-12-16T03:28:42.324Z,91.00
2017-12-16T03:31:17.249Z,91.00
2017-12-16T03:33:51.157Z,91.00
2017-12-16T03:36:25.727Z,91.30
2017-12-16T03:39:01.871Z,91.30
2017-12-16T03:41:35.968Z,91.60
2017-12-16T03:44:09.728Z,91.70
2017-12-16T03:46:43.552Z,91.80
2017-12-16T03:49:17.426Z,91.80
2017-12-16T03:51:50.997Z,92.00
2017-12-16T03:54:24.829Z,92.00
2017-12-16T03:56:58.504Z,92.00
2017-12-16T03:59:32.204Z,92.00
2017-12-16T04:02:06.004Z,92.10
2017-12-16T04:04:39.716Z,92.10
2017-12-16T04:07:14.718Z,92.10
2017-12-16T04:09:48.488Z,92.10
2017-12-16T04:12:25.027Z,92.10
2017-12-16T04:15:01.977Z,91.80
2017-12-16T04:17:37.102Z,91.40
2017-12-16T04:20:13.301Z,91.00
2017-12-16T04:22:47.725Z,90.70
2017-12-16T04:25:21.468Z,90.70
2017-12-16T04:28:02.744Z,90.50
2017-12-16T04:30:37.360Z,90.60
2017-12-16T04:36:11.200Z,90.20
2017-12-16T04:38:45.306Z,89.70
2017-12-16T04:41:20.073Z,89.40
2017-12-16T04:43:53.706Z,89.10
2017-12-16T04:46:27.449Z,88.30
2017-12-16T04:49:01.971Z,88.10
2017-12-16T04:51:36.236Z,87.20
2017-12-16T04:54:10.426Z,87.20
2017-12-16T04:56:45.359Z,87.20
2017-12-16T04:59:19.969Z,87.00
2017-12-16T05:01:55.784Z,86.50
2017-12-16T05:04:29.543Z,86.10
2017-12-16T05:07:03.244Z,87.30
2017-12-16T05:09:37.998Z,87.30
2017-12-16T05:12:11.781Z,87.30
2017-12-16T05:14:45.480Z,87.40
2017-12-16T05:17:20.457Z,87.80
2017-12-16T05:19:55.029Z,87.60
2017-12-16T05:22:28.832Z,87.70
2017-12-16T05:25:21.809Z,87.70
2017-12-16T05:27:57.021Z,88.30
2017-12-16T05:30:31.103Z,88.20
2017-12-16T05:33:05.013Z,88.20
2017-12-16T05:35:55.735Z,88.30
2017-12-16T05:38:29.502Z,88.80
2017-12-16T05:41:05.935Z,88.90
2017-12-16T05:43:40.392Z,88.80
2017-12-16T05:46:14.850Z,88.60
2017-12-16T05:48:50.129Z,88.30
2017-12-16T05:51:28.580Z,89.80
2017-12-16T05:54:03.133Z,89.00
2017-12-16T05:56:39.780Z,89.00
2017-12-16T05:59:14.287Z,88.50
2017-12-16T06:01:48.781Z,88.90
2017-12-16T06:04:25.599Z,89.10
2017-12-16T06:07:04.757Z,90.00
2017-12-16T06:09:39.814Z,89.50
2017-12-16T06:12:15.913Z,89.60
2017-12-16T06:14:49.701Z,89.70
2017-12-16T06:17:24.244Z,89.70
2017-12-16T06:19:58.186Z,89.70
2017-12-16T06:22:33.661Z,90.20
2017-12-16T06:25:09.718Z,89.70
2017-12-16T06:27:43.969Z,90.00
2017-12-16T06:30:18.342Z,89.60
2017-12-16T06:32:55.688Z,89.90
2017-12-16T06:35:34.015Z,90.00
2017-12-16T06:38:10.038Z,89.70
2017-12-16T06:40:46.043Z,89.70
2017-12-16T06:43:21.144Z,90.00
2017-12-16T06:45:58.843Z,90.00
2017-12-16T06:48:36.085Z,90.00
2017-12-16T06:51:10.636Z,90.10
2017-12-16T06:53:44.681Z,90.30
2017-12-16T06:56:19.591Z,90.40
2017-12-16T06:58:56.374Z,90.50
2017-12-16T07:01:32.085Z,90.60
2017-12-16T07:04:07.064Z,90.40
2017-12-16T07:06:42.911Z,90.30
2017-12-16T07:09:17.966Z,90.30
2017-12-16T07:14:48.377Z,90.50
2017-12-16T07:17:22.081Z,90.50
2017-12-16T07:19:57.427Z,90.30
2017-12-16T07:22:32.898Z,90.30
2017-12-16T07:25:09.441Z,90.20
2017-12-16T07:27:43.384Z,90.30
2017-12-16T07:30:26.380Z,90.40
2017-12-16T07:33:03.211Z,90.60
2017-12-16T07:35:38.593Z,90.60
2017-12-16T07:38:12.586Z,90.60
2017-12-16T07:40:46.771Z,90.80
2017-12-16T07:43:22.153Z,90.80
2017-12-16T07:45:58.288Z,90.60
2017-12-16T07:48:32.783Z,90.90
2017-12-16T07:51:07.399Z,90.90
2017-12-16T07:53:41.367Z,90.90
2017-12-16T07:56:15.162Z,90.90
2017-12-16T07:58:49.762Z,90.80
2017-12-16T08:01:24.429Z,90.90
2017-12-16T08:03:58.384Z,91.00
2017-12-16T08:06:35.303Z,90.90
2017-12-16T08:09:13.489Z,90.90
2017-12-16T08:11:51.299Z,90.80
2017-12-16T08:14:35.979Z,90.60
2017-12-16T08:17:11.229Z,90.60
2017-12-16T08:19:47.345Z,90.60
2017-12-16T08:22:21.733Z,90.70
2017-12-16T08:24:56.533Z,90.50
2017-12-16T08:27:36.210Z,90.40
2017-12-16T08:33:07.014Z,90.00
2017-12-16T08:35:43.619Z,89.20
2017-12-16T08:38:26.710Z,89.20
2017-12-16T08:41:03.208Z,89.00
2017-12-16T08:43:47.590Z,88.70
2017-12-16T08:46:26.096Z,89.10
2017-12-16T08:49:06.645Z,88.20
2017-12-16T08:51:43.142Z,88.40
2017-12-16T08:56:59.128Z,87.80
2017-12-16T08:59:39.723Z,87.90
2017-12-16T09:05:12.411Z,87.80
2017-12-16T09:10:29.951Z,87.50
2017-12-16T09:15:48.871Z,87.40
2017-12-16T09:21:15.318Z,87.30
2017-12-16T09:29:36.557Z,87.80
2017-12-16T09:32:13.376Z,87.30
2017-12-16T09:37:52.606Z,88.20
2017-12-16T09:40:32.746Z,87.70
2017-12-16T09:46:11.764Z,87.30
2017-12-16T09:53:39.804Z,87.50
2017-12-16T09:56:26.461Z,87.40
2017-12-16T09:59:11.567Z,86.80
2017-12-16T10:01:49.721Z,87.10
2017-12-16T10:04:34.634Z,85.60
2017-12-16T10:07:17.005Z,85.30
2017-12-16T10:09:58.758Z,85.40
2017-12-16T10:12:38.252Z,85.00
2017-12-16T10:15:19.622Z,85.40
2017-12-16T10:20:55.083Z,85.50
2017-12-16T10:26:38.424Z,85.70
2017-12-16T10:32:05.134Z,84.30
2017-12-16T10:34:41.733Z,84.40
2017-12-16T10:37:17.280Z,84.20
2017-12-16T10:39:57.855Z,83.50
2017-12-16T10:45:48.930Z,83.30
2017-12-16T10:57:01.066Z,82.40
2017-12-16T10:59:37.370Z,82.50
2017-12-16T11:02:14.549Z,82.50
2017-12-16T11:04:48.901Z,82.40
2017-12-16T11:07:28.926Z,82.80
2017-12-16T11:10:07.367Z,81.80
2017-12-16T11:12:41.912Z,81.90
2017-12-16T11:15:18.017Z,82.40
2017-12-16T11:17:54.065Z,82.80
2017-12-16T11:20:28.696Z,81.60
2017-12-16T11:23:10.758Z,81.60
2017-12-16T11:25:44.486Z,81.50
2017-12-16T11:28:19.468Z,81.10
2017-12-16T11:30:53.118Z,81.00
2017-12-16T11:33:28.377Z,80.80
2017-12-16T11:36:02.800Z,81.10
2017-12-16T11:38:37.291Z,80.40
2017-12-16T11:41:12.264Z,80.30
2017-12-16T11:43:45.976Z,80.40
2017-12-16T11:46:21.009Z,78.80
2017-12-16T11:48:55.541Z,78.60
2017-12-16T11:51:30.044Z,79.10
2017-12-16T11:54:03.805Z,78.40
2017-12-16T11:56:37.647Z,80.10
2017-12-16T11:59:11.957Z,79.00
2017-12-16T12:01:46.834Z,79.20
2017-12-16T12:13:18.374Z,77.10
2017-12-16T12:18:51.852Z,77.20
2017-12-16T12:21:25.675Z,77.40
2017-12-16T12:23:59.467Z,77.30
2017-12-16T12:26:33.207Z,77.50
2017-12-16T12:29:07.088Z,77.80
2017-12-16T12:31:41.821Z,78.00
2017-12-16T12:34:15.956Z,77.80
2017-12-16T12:36:49.745Z,78.00
2017-12-16T12:39:23.562Z,78.30
2017-12-16T12:41:57.871Z,77.30
2017-12-16T12:44:32.069Z,78.60
2017-12-16T12:47:07.169Z,78.30
2017-12-16T12:49:41.804Z,78.40
2017-12-16T12:52:16.024Z,78.80
2017-12-16T12:54:49.827Z,78.70
2017-12-16T12:57:25.465Z,78.20
2017-12-16T13:00:06.354Z,77.90
2017-12-16T13:02:41.088Z,77.60
2017-12-16T13:05:16.096Z,77.50
2017-12-16T13:07:52.932Z,77.50
2017-12-16T13:10:32.816Z,77.80
2017-12-16T13:13:16.529Z,78.00
2017-12-16T13:15:57.812Z,76.80
2017-12-16T13:18:37.524Z,76.90
2017-12-16T13:21:22.636Z,76.90
2017-12-16T13:23:57.314Z,76.40
2017-12-16T13:26:33.565Z,76.70
2017-12-16T13:29:09.482Z,76.70
2017-12-16T13:31:46.064Z,76.50
2017-12-16T13:34:21.353Z,76.40
2017-12-16T13:36:57.081Z,76.90
2017-12-16T13:39:32.237Z,77.60
2017-12-16T13:42:07.633Z,77.30
2017-12-16T13:44:41.638Z,77.80
2017-12-16T13:47:16.290Z,77.60
2017-12-16T13:49:52.132Z,76.90
2017-12-16T13:52:25.916Z,76.50
2017-12-16T13:55:00.462Z,76.40
2017-12-16T14:00:17.906Z,77.10
2017-12-16T14:02:51.683Z,77.10
2017-12-16T14:05:26.035Z,77.80
2017-12-16T14:08:00.392Z,77.60
2017-12-16T14:10:36.921Z,77.10
2017-12-16T14:13:13.151Z,76.20
2017-12-16T14:15:52.051Z,76.50
2017-12-16T14:18:29.980Z,76.80
2017-12-16T14:21:04.528Z,77.60
2017-12-16T14:23:38.178Z,77.60
2017-12-16T14:26:11.838Z,77.40
2017-12-16T14:28:46.533Z,77.90
2017-12-16T14:31:20.260Z,77.50
2017-12-16T14:33:54.984Z,77.80
2017-12-16T14:36:30.821Z,76.80
2017-12-16T14:39:05.477Z,76.90
2017-12-16T14:41:40.929Z,76.80
2017-12-16T14:44:33.953Z,76.80
2017-12-16T14:47:12.219Z,77.50
2017-12-16T14:49:46.100Z,77.50
2017-12-16T14:52:22.946Z,77.90
2017-12-16T14:54:58.259Z,78.10
2017-12-16T14:57:35.916Z,78.00
2017-12-16T15:00:12.929Z,78.30
2017-12-16T15:02:46.761Z,77.90
2017-12-16T15:05:21.225Z,77.80
2017-12-16T15:07:58.353Z,77.80
2017-12-16T15:10:32.034Z,78.30
2017-12-16T15:13:05.754Z,78.30
2017-12-16T15:15:39.547Z,78.80
2017-12-16T15:18:17.683Z,78.60
2017-12-16T15:20:54.832Z,78.80
2017-12-16T15:23:33.121Z,79.10
2017-12-16T15:26:08.005Z,79.60
2017-12-16T15:28:42.858Z,79.60
2017-12-16T15:31:16.762Z,79.40
2017-12-16T15:33:50.535Z,80.10
2017-12-16T15:39:05.042Z,79.80
2017-12-16T15:41:39.421Z,79.60
2017-12-16T15:46:54.269Z,80.30
2017-12-16T15:49:28.549Z,80.30
2017-12-16T15:52:02.387Z,81.10
2017-12-16T15:54:36.965Z,80.30
2017-12-16T15:57:10.683Z,80.30
2017-12-16T15:59:44.452Z,80.30
2017-12-16T16:02:19.154Z,80.30
2017-12-16T16:04:52.999Z,80.60
2017-12-16T16:07:27.393Z,80.30
2017-12-16T16:10:03.953Z,80.30
2017-12-16T16:12:37.889Z,79.20
2017-12-16T16:15:12.410Z,79.80
2017-12-16T16:17:46.071Z,79.80
2017-12-16T16:20:26.815Z,79.10
2017-12-16T16:23:00.685Z,79.50
2017-12-16T16:25:34.521Z,79.70
2017-12-16T16:28:08.327Z,80.30
2017-12-16T16:30:42.896Z,79.80
2017-12-16T16:33:16.701Z,79.70
2017-12-16T16:35:51.362Z,80.10
2017-12-16T16:38:25.269Z,80.10
2017-12-16T16:40:59.010Z,80.50
2017-12-16T16:43:32.757Z,80.70
2017-12-16T16:46:06.424Z,81.20
2017-12-16T16:48:41.021Z,81.60
2017-12-16T16:51:14.728Z,82.00
2017-12-16T16:53:48.459Z,82.30
2017-12-16T16:56:23.239Z,83.00
2017-12-16T16:58:56.849Z,84.00
2017-12-16T17:01:31.607Z,84.80
2017-12-16T17:04:05.168Z,85.30
2017-12-16T17:06:40.223Z,85.90
2017-12-16T17:09:13.910Z,86.60
2017-12-16T17:11:48.477Z,86.30
2017-12-16T17:17:06.990Z,86.40
2017-12-16T17:19:45.357Z,86.30
2017-12-16T17:22:27.556Z,86.10
2017-12-16T17:25:02.668Z,85.90
2017-12-16T17:27:43.317Z,85.80
2017-12-16T17:30:26.639Z,85.30
2017-12-16T17:33:01.554Z,85.40
2017-12-16T17:35:39.931Z,85.10
2017-12-16T17:38:16.160Z,85.30
2017-12-16T17:41:01.151Z,84.90
2017-12-16T17:43:36.397Z,84.80
2017-12-16T17:46:16.380Z,84.50
2017-12-16T17:48:54.954Z,85.00
2017-12-16T17:51:34.152Z,85.10
2017-12-16T17:54:13.713Z,85.10
2017-12-16T17:56:50.229Z,84.90
2017-12-16T17:59:24.123Z,85.40
2017-12-16T18:01:58.073Z,85.50
2017-12-16T18:04:32.676Z,85.30
2017-12-16T18:07:09.201Z,85.30
2017-12-16T18:09:44.563Z,85.30
2017-12-16T18:12:18.911Z,84.80
2017-12-16T18:14:52.915Z,85.40
2017-12-16T18:17:26.690Z,85.10
2017-12-16T18:20:02.077Z,85.70
2017-12-16T18:22:37.734Z,85.40
2017-12-16T18:25:15.702Z,85.50
2017-12-16T18:27:51.111Z,85.70
2017-12-16T18:30:25.003Z,85.90
2017-12-16T18:32:59.479Z,86.30
2017-12-16T18:35:33.603Z,86.20
2017-12-16T18:38:07.750Z,86.10
2017-12-16T18:40:41.385Z,86.50
2017-12-16T18:43:15.122Z,86.70
2017-12-16T18:45:49.806Z,86.90
2017-12-16T18:48:23.830Z,86.90
2017-12-16T18:50:57.683Z,86.90
2017-12-16T18:53:32.562Z,87.10
2017-12-16T18:56:06.348Z,87.20
2017-12-16T18:58:40.072Z,86.40
2017-12-16T19:01:13.833Z,86.20
2017-12-16T19:03:47.580Z,85.40
2017-12-16T19:06:21.155Z,84.80
2017-12-16T19:14:58.521Z,87.70
2017-12-16T19:17:34.780Z,87.60
2017-12-16T19:20:15.119Z,87.40
2017-12-16T19:22:49.805Z,88.70
2017-12-16T19:25:23.909Z,89.80
2017-12-16T19:27:59.254Z,90.20
2017-12-16T19:30:33.840Z,90.20
2017-12-16T19:33:07.905Z,90.10
2017-12-16T19:35:43.525Z,90.10
2017-12-16T19:38:17.527Z,90.30
2017-12-16T19:40:52.061Z,90.60
2017-12-16T19:43:26.562Z,90.50
2017-12-16T19:46:01.254Z,90.60
2017-12-16T19:48:35.198Z,90.60
2017-12-16T19:51:09.591Z,90.60
2017-12-16T19:53:46.092Z,90.60
2017-12-16T19:56:50.963Z,90.60
2017-12-16T19:59:25.208Z,90.90
2017-12-16T20:01:59.149Z,91.20
2017-12-16T20:04:33.005Z,91.40
2017-12-16T20:07:23.347Z,91.60
2017-12-16T20:15:56.786Z,92.10
2017-12-16T20:18:31.304Z,92.10
2017-12-16T20:21:05.149Z,92.30
2017-12-16T20:23:39.389Z,91.80
2017-12-16T20:26:14.026Z,91.70
2017-12-16T20:28:48.866Z,91.40
2017-12-16T20:31:22.565Z,91.00
2017-12-16T20:33:57.049Z,90.70
2017-12-16T20:36:32.448Z,90.70
2017-12-16T20:39:06.310Z,90.70
2017-12-16T20:41:41.570Z,90.70
2017-12-16T20:44:17.779Z,90.70
2017-12-16T20:46:52.306Z,90.50
2017-12-16T20:49:26.109Z,90.40
2017-12-16T20:52:10.603Z,90.40
2017-12-16T20:54:46.224Z,90.20
2017-12-16T20:57:20.945Z,90.00
2017-12-16T20:59:59.630Z,89.80
2017-12-16T21:05:13.057Z,89.00
2017-12-16T21:07:47.129Z,88.90
2017-12-16T21:10:21.067Z,88.80
2017-12-16T21:12:55.659Z,88.90
2017-12-16T21:15:29.466Z,88.90
2017-12-16T21:18:03.224Z,88.40
2017-12-16T21:20:36.968Z,87.80
2017-12-16T21:23:10.749Z,88.20
2017-12-16T21:25:44.606Z,88.30
2017-12-16T21:28:18.289Z,88.30
2017-12-16T21:30:52.804Z,88.00
2017-12-16T21:33:27.892Z,88.00
2017-12-16T21:36:01.665Z,88.30
2017-12-16T21:38:36.235Z,88.60
2017-12-16T21:41:09.961Z,88.60
2017-12-16T21:43:43.632Z,89.00
2017-12-16T21:46:18.701Z,89.30
2017-12-16T21:48:53.873Z,88.80
2017-12-16T21:51:29.314Z,88.80
2017-12-16T21:54:04.182Z,88.50
2017-12-16T21:56:37.958Z,88.50
2017-12-16T21:59:11.732Z,88.70
2017-12-16T22:01:45.428Z,88.90
2017-12-16T22:04:19.992Z,88.60
2017-12-16T22:06:53.789Z,88.60
2017-12-16T22:09:27.715Z,89.00
2017-12-16T22:12:01.789Z,90.00
2017-12-16T22:14:35.550Z,89.90
2017-12-16T22:17:09.629Z,89.80
2017-12-16T22:19:43.204Z,90.00
2017-12-16T22:22:18.080Z,89.70
2017-12-16T22:24:51.716Z,89.70
2017-12-16T22:27:27.081Z,89.10
2017-12-16T22:30:01.751Z,90.00
2017-12-16T22:32:35.492Z,90.50
2017-12-16T22:35:09.313Z,90.60
2017-12-16T22:37:43.863Z,90.90
2017-12-16T22:40:17.656Z,90.90
2017-12-16T22:42:51.534Z,90.80
2017-12-16T22:45:25.234Z,90.60
2017-12-16T22:47:58.997Z,90.90
2017-12-16T22:50:32.797Z,90.50
2017-12-16T22:53:06.537Z,90.60
2017-12-16T22:55:40.278Z,90.60
2017-12-16T22:58:13.989Z,90.60
2017-12-16T23:00:48.509Z,90.40
2017-12-16T23:03:22.322Z,90.40
2017-12-16T23:05:56.181Z,90.50
2017-12-16T23:08:30.130Z,90.30
2017-12-16T23:11:03.853Z,90.20
2017-12-16T23:13:37.671Z,90.30
2017-12-16T23:16:11.515Z,90.30
2017-12-16T23:18:45.731Z,90.30
2017-12-16T23:21:20.203Z,90.30
2017-12-16T23:23:54.644Z,90.20
2017-12-16T23:26:28.416Z,90.20
2017-12-16T23:29:02.127Z,90.10
2017-12-16T23:31:35.951Z,90.30
2017-12-16T23:34:10.446Z,90.20
2017-12-16T23:36:45.213Z,90.30
2017-12-16T23:39:19.807Z,90.30
2017-12-16T23:41:54.397Z,90.20
2017-12-16T23:44:28.127Z,90.40
2017-12-16T23:47:02.782Z,90.00
2017-12-16T23:49:36.477Z,90.30
2017-12-16T23:52:11.056Z,90.00
2017-12-16T23:54:44.764Z,90.00
2017-12-16T23:57:18.545Z,90.10
2017-12-16T23:59:52.288Z,90.10
